createdAt,value
2023-01-03T00:01:58.376Z,24.70
2023-01-03T00:04:24.952Z,23.52
2023-01-03T00:06:52.862Z,23.92
2023-01-03T00:09:22.567Z,20.65
2023-01-03T00:12:08.331Z,20.33
2023-01-03T00:14:36.789Z,23.63
2023-01-03T00:17:04.139Z,21.13
2023-01-03T00:19:33.069Z,20.08
2023-01-03T00:21:59.563Z,18.63
2023-01-03T00:24:26.016Z,18.77
2023-01-03T00:26:52.524Z,16.40
2023-01-03T00:29:19.061Z,16.88
2023-01-03T00:31:45.518Z,17.33
2023-01-03T00:34:11.969Z,19.65
2023-01-03T00:36:38.484Z,17.35
2023-01-03T00:39:05.011Z,16.60
2023-01-03T00:41:31.558Z,14.80
2023-01-03T00:43:58.116Z,15.05
2023-01-03T00:46:24.613Z,15.70
2023-01-03T00:48:51.087Z,14.88
2023-01-03T00:51:27.924Z,18.13
2023-01-03T00:53:56.371Z,16.20
2023-01-03T00:56:24.377Z,16.20
2023-01-03T00:58:50.905Z,14.43
2023-01-03T01:01:24.079Z,12.80
2023-01-03T01:03:56.771Z,16.20
2023-01-03T01:06:25.846Z,12.32
2023-01-03T01:08:53.979Z,14.32
2023-01-03T01:11:20.643Z,11.90
2023-01-03T01:13:47.328Z,14.07
2023-01-03T01:16:16.160Z,10.63
2023-01-03T01:18:43.421Z,11.15
2023-01-03T01:21:12.449Z,12.57
2023-01-03T01:23:39.877Z,12.85
2023-01-03T01:26:07.020Z,10.80
2023-01-03T01:28:33.628Z,10.95
2023-01-03T01:31:00.851Z,12.25
2023-01-03T01:33:27.467Z,10.57
2023-01-03T01:35:54.092Z,12.38
2023-01-03T01:38:20.565Z,10.48
2023-01-03T01:40:47.062Z,9.68
2023-01-03T01:43:42.095Z,9.75
2023-01-03T01:46:17.490Z,10.02
2023-01-03T01:48:43.967Z,11.25
2023-01-03T01:51:10.406Z,9.48
2023-01-03T01:53:36.845Z,10.82
2023-01-03T01:56:23.906Z,10.30
2023-01-03T01:58:51.387Z,8.60
2023-01-03T02:01:19.733Z,9.13
2023-01-03T02:03:47.975Z,8.20
2023-01-03T02:06:15.402Z,9.70
2023-01-03T02:08:41.871Z,7.32
2023-01-03T02:11:42.296Z,7.50
2023-01-03T02:14:32.329Z,8.27
2023-01-03T02:17:45.315Z,8.02
2023-01-03T02:20:31.447Z,6.90
2023-01-03T02:23:21.687Z,8.77
2023-01-03T02:26:29.690Z,8.23
2023-01-03T02:29:08.209Z,7.88
2023-01-03T02:31:54.167Z,8.55
2023-01-03T02:34:48.131Z,5.93
2023-01-03T02:37:26.633Z,6.90
2023-01-03T02:39:58.665Z,6.05
2023-01-03T02:42:52.138Z,6.63
2023-01-03T02:45:29.195Z,4.88
2023-01-03T02:48:03.400Z,5.78
2023-01-03T02:50:31.252Z,5.95
2023-01-03T02:53:00.814Z,6.00
2023-01-03T02:55:28.488Z,6.30
2023-01-03T02:58:13.661Z,6.10
2023-01-03T03:00:42.714Z,6.40
2023-01-03T03:03:12.375Z,5.75
2023-01-03T03:05:45.813Z,5.78
2023-01-03T03:08:12.792Z,4.72
2023-01-03T03:10:57.694Z,5.32
2023-01-03T03:13:35.772Z,5.63
2023-01-03T03:16:05.828Z,4.50
2023-01-03T03:18:55.330Z,5.00
2023-01-03T03:21:40.404Z,5.22
2023-01-03T03:24:29.511Z,6.03
2023-01-03T03:26:56.056Z,4.22
2023-01-03T03:29:22.520Z,4.55
2023-01-03T03:31:50.223Z,3.63
2023-01-03T03:34:25.510Z,4.20
2023-01-03T03:37:10.853Z,4.45
2023-01-03T03:39:55.978Z,4.93
2023-01-03T03:42:47.744Z,3.88
2023-01-03T03:45:28.499Z,4.28
2023-01-03T03:48:21.084Z,5.32
2023-01-03T03:50:49.902Z,3.67
2023-01-03T03:53:16.545Z,5.13
2023-01-03T03:55:50.007Z,2.97
2023-01-03T03:58:37.333Z,3.78
2023-01-03T04:01:03.799Z,3.40
2023-01-03T04:03:30.339Z,2.80
2023-01-03T04:06:07.081Z,4.57
2023-01-03T04:08:33.533Z,4.13
2023-01-03T04:11:06.114Z,3.85
2023-01-03T04:13:36.538Z,4.15
2023-01-03T04:16:03.554Z,3.70
2023-01-03T04:18:30.389Z,2.53
2023-01-03T04:20:57.364Z,3.60
2023-01-03T04:23:23.836Z,2.95
2023-01-03T04:25:50.387Z,2.65
2023-01-03T04:28:17.193Z,2.80
2023-01-03T04:30:43.653Z,2.67
2023-01-03T04:33:10.426Z,2.67
2023-01-03T04:35:36.867Z,2.58
2023-01-03T04:38:03.672Z,2.90
2023-01-03T04:40:30.395Z,2.10
2023-01-03T04:43:15.492Z,2.58
2023-01-03T04:45:42.015Z,2.47
2023-01-03T04:48:08.529Z,1.90
2023-01-03T04:50:34.987Z,2.65
2023-01-03T04:53:01.461Z,2.58
2023-01-03T04:55:27.921Z,3.60
2023-01-03T04:57:54.390Z,2.40
2023-01-03T05:00:20.879Z,2.10
2023-01-03T05:02:47.643Z,3.13
2023-01-03T05:05:14.121Z,3.35
2023-01-03T05:07:40.575Z,3.00
2023-01-03T05:10:07.288Z,2.45
2023-01-03T05:12:33.755Z,3.10
2023-01-03T05:15:00.208Z,1.90
2023-01-03T05:17:26.666Z,1.90
2023-01-03T05:20:11.367Z,2.53
2023-01-03T05:22:56.721Z,2.22
2023-01-03T05:25:41.653Z,2.50
2023-01-03T05:28:12.367Z,2.30
2023-01-03T05:30:43.455Z,2.72
2023-01-03T05:33:09.904Z,2.10
2023-01-03T05:35:36.345Z,1.58
2023-01-03T05:38:02.798Z,2.40
2023-01-03T05:40:29.271Z,1.83
2023-01-03T05:42:55.726Z,2.88
2023-01-03T05:45:25.668Z,1.85
2023-01-03T05:47:52.239Z,2.17
2023-01-03T05:50:18.820Z,2.08
2023-01-03T05:52:45.316Z,1.77
2023-01-03T05:55:11.768Z,2.17
2023-01-03T05:57:38.249Z,2.45
2023-01-03T06:00:05.033Z,2.10
2023-01-03T06:02:31.572Z,2.08
2023-01-03T06:04:58.048Z,1.65
2023-01-03T06:07:24.512Z,2.30
2023-01-03T06:09:50.991Z,2.45
2023-01-03T06:12:17.474Z,2.03
2023-01-03T06:14:43.928Z,1.35
2023-01-03T06:17:28.870Z,1.15
2023-01-03T06:19:55.420Z,1.30
2023-01-03T06:22:22.006Z,2.20
2023-01-03T06:24:48.484Z,1.60
2023-01-03T06:27:14.963Z,2.00
2023-01-03T06:29:41.407Z,1.83
2023-01-03T06:32:09.806Z,1.27
2023-01-03T06:34:36.918Z,1.80
2023-01-03T06:37:03.386Z,1.10
2023-01-03T06:39:29.906Z,1.58
2023-01-03T06:41:56.360Z,1.38
2023-01-03T06:44:23.417Z,1.40
2023-01-03T06:47:08.397Z,3.28
2023-01-03T06:49:53.512Z,1.52
2023-01-03T06:52:38.374Z,1.45
2023-01-03T06:55:05.152Z,1.73
2023-01-03T06:57:31.778Z,1.30
2023-01-03T06:59:58.226Z,1.33
2023-01-03T07:02:24.967Z,1.05
2023-01-03T07:04:51.743Z,2.78
2023-01-03T07:07:18.345Z,1.17
2023-01-03T07:09:44.806Z,1.45
2023-01-03T07:12:29.766Z,1.73
2023-01-03T07:14:56.234Z,1.98
2023-01-03T07:17:22.720Z,1.55
2023-01-03T07:19:49.198Z,1.05
2023-01-03T07:22:15.686Z,1.58
2023-01-03T07:24:42.138Z,1.60
2023-01-03T07:27:08.585Z,1.00
2023-01-03T07:29:35.066Z,1.17
2023-01-03T07:32:01.577Z,0.82
2023-01-03T07:34:31.967Z,0.90
2023-01-03T07:36:58.424Z,1.10
2023-01-03T07:39:24.927Z,1.73
2023-01-03T07:42:09.848Z,1.83
2023-01-03T07:44:36.298Z,1.45
2023-01-03T07:47:02.786Z,0.95
2023-01-03T07:49:29.367Z,2.80
2023-01-03T07:51:55.831Z,2.60
2023-01-03T07:54:22.303Z,1.05
2023-01-03T07:56:48.759Z,3.75
2023-01-03T07:59:15.236Z,17.75
2023-01-03T08:01:41.759Z,8.63
2023-01-03T08:04:08.583Z,7.47
2023-01-03T08:06:35.070Z,7.30
2023-01-03T08:09:20.378Z,5.63
2023-01-03T08:12:05.244Z,10.02
2023-01-03T08:14:31.826Z,3.92
2023-01-03T08:16:58.303Z,6.43
2023-01-03T08:19:24.834Z,8.93
2023-01-03T08:21:51.320Z,5.70
2023-01-03T08:24:17.779Z,6.68
2023-01-03T08:26:44.303Z,9.63
2023-01-03T08:29:11.159Z,10.38
2023-01-03T08:31:40.412Z,8.13
2023-01-03T08:34:13.571Z,11.45
2023-01-03T08:36:46.041Z,6.72
2023-01-03T08:39:14.664Z,7.10
2023-01-03T08:41:46.546Z,5.88
2023-01-03T08:44:13.078Z,6.82
2023-01-03T08:46:42.903Z,8.68
2023-01-03T08:49:09.792Z,10.45
2023-01-03T08:51:36.256Z,7.30
2023-01-03T08:54:02.751Z,11.98
2023-01-03T08:56:29.466Z,9.07
2023-01-03T08:58:57.745Z,9.00
2023-01-03T09:01:25.171Z,8.45
2023-01-03T09:03:51.961Z,9.65
2023-01-03T09:06:18.632Z,5.82
2023-01-03T09:08:45.112Z,4.97
2023-01-03T09:11:11.678Z,4.30
2023-01-03T09:13:38.289Z,8.77
2023-01-03T09:16:06.444Z,7.55
2023-01-03T09:18:33.668Z,7.07
2023-01-03T09:21:00.432Z,4.93
2023-01-03T09:23:26.905Z,8.02
2023-01-03T09:25:53.389Z,6.05
2023-01-03T09:28:19.876Z,5.35
2023-01-03T09:30:46.327Z,4.60
2023-01-03T09:33:12.782Z,4.75
2023-01-03T09:35:39.391Z,4.68
2023-01-03T09:38:05.921Z,5.53
2023-01-03T09:40:36.083Z,8.63
2023-01-03T09:43:19.834Z,4.68
2023-01-03T09:46:00.151Z,4.03
2023-01-03T09:48:44.902Z,4.25
2023-01-03T09:51:37.935Z,4.18
2023-01-03T09:54:23.058Z,4.18
2023-01-03T09:57:08.061Z,3.75
2023-01-03T09:59:55.522Z,4.45
2023-01-03T10:03:07.051Z,5.55
2023-01-03T10:05:45.777Z,4.53
2023-01-03T10:08:21.751Z,3.50
2023-01-03T10:11:09.416Z,3.67
2023-01-03T10:13:54.032Z,4.45
2023-01-03T10:16:36.303Z,4.60
2023-01-03T10:19:11.870Z,2.05
2023-01-03T10:22:00.131Z,3.63
2023-01-03T10:24:30.673Z,4.18
2023-01-03T10:27:11.797Z,3.83
2023-01-03T10:29:38.280Z,3.35
2023-01-03T10:32:35.869Z,3.13
2023-01-03T10:35:22.485Z,2.78
2023-01-03T10:37:52.817Z,4.70
2023-01-03T10:40:19.838Z,3.28
2023-01-03T10:42:46.511Z,2.65
2023-01-03T10:45:17.087Z,3.60
2023-01-03T10:47:43.666Z,3.60
2023-01-03T10:50:21.554Z,3.50
2023-01-03T10:52:48.117Z,2.80
2023-01-03T10:55:16.408Z,1.80
2023-01-03T10:57:48.271Z,3.17
2023-01-03T11:00:32.194Z,4.13
2023-01-03T11:03:18.037Z,2.83
2023-01-03T11:05:46.756Z,1.90
2023-01-03T11:08:20.514Z,3.72
2023-01-03T11:10:53.723Z,2.28
2023-01-03T11:13:38.960Z,2.90
2023-01-03T11:16:16.245Z,1.33
2023-01-03T11:18:43.069Z,2.58
2023-01-03T11:21:26.119Z,1.67
2023-01-03T11:24:24.636Z,1.45
2023-01-03T11:26:51.599Z,3.10
2023-01-03T11:29:36.306Z,1.83
2023-01-03T11:32:23.717Z,2.20
2023-01-03T11:35:24.405Z,2.40
2023-01-03T11:38:01.197Z,3.45
2023-01-03T11:40:59.387Z,1.70
2023-01-03T11:43:53.418Z,1.77
2023-01-03T11:46:55.035Z,1.67
2023-01-03T11:49:35.840Z,1.35
2023-01-03T11:52:30.185Z,1.92
2023-01-03T11:55:15.409Z,3.70
2023-01-03T11:58:12.899Z,1.52
2023-01-03T12:00:56.150Z,2.67
2023-01-03T12:04:00.410Z,1.63
2023-01-03T12:06:49.040Z,3.78
2023-01-03T12:09:32.952Z,1.75
2023-01-03T12:12:23.012Z,4.63
2023-01-03T12:15:23.042Z,1.58
2023-01-03T12:18:13.492Z,3.38
2023-01-03T12:20:41.797Z,3.58
2023-01-03T12:23:27.443Z,1.80
2023-01-03T12:25:56.060Z,4.93
2023-01-03T12:28:41.239Z,2.67
2023-01-03T12:31:13.163Z,1.17
2023-01-03T12:33:48.316Z,1.30
2023-01-03T12:36:52.926Z,3.10
2023-01-03T12:39:41.850Z,1.52
2023-01-03T12:42:29.202Z,2.08
2023-01-03T12:45:18.258Z,1.73
2023-01-03T12:47:56.892Z,1.48
2023-01-03T12:50:40.446Z,1.33
2023-01-03T12:53:19.418Z,0.67
2023-01-03T12:56:02.023Z,12.73
2023-01-03T12:58:53.150Z,4.57
2023-01-03T13:01:39.178Z,2.92
2023-01-03T13:04:22.644Z,2.10
2023-01-03T13:06:58.989Z,5.43
2023-01-03T13:09:31.868Z,6.78
2023-01-03T13:12:02.610Z,2.70
2023-01-03T13:14:29.129Z,2.60
2023-01-03T13:16:56.900Z,1.65
2023-01-03T13:19:23.209Z,1.80
2023-01-03T13:21:52.603Z,2.22
2023-01-03T13:24:41.823Z,2.35
2023-01-03T13:27:35.203Z,1.42
2023-01-03T13:30:01.677Z,1.15
2023-01-03T13:32:34.637Z,1.52
2023-01-03T13:35:04.324Z,1.17
2023-01-03T13:37:36.441Z,1.25
2023-01-03T13:41:07.621Z,1.75
2023-01-03T13:43:22.130Z,1.63
2023-01-03T13:45:50.306Z,2.67
2023-01-03T13:48:24.582Z,1.02
2023-01-03T13:51:30.284Z,1.13
2023-01-03T13:54:11.940Z,1.23
2023-01-03T13:56:44.229Z,1.50
2023-01-03T13:59:24.177Z,2.00
2023-01-03T14:02:09.573Z,0.60
2023-01-03T14:04:57.116Z,3.75
2023-01-03T14:07:47.650Z,1.15
2023-01-03T14:10:20.034Z,1.73
2023-01-03T14:13:12.351Z,1.10
2023-01-03T14:15:38.838Z,1.27
2023-01-03T14:18:14.035Z,1.20
2023-01-03T14:20:45.369Z,1.88
2023-01-03T14:23:48.730Z,1.92
2023-01-03T14:26:04.706Z,0.63
2023-01-03T14:28:32.465Z,2.70
2023-01-03T14:31:06.746Z,0.70
2023-01-03T14:34:11.440Z,0.90
2023-01-03T14:36:45.954Z,1.52
2023-01-03T14:39:20.654Z,1.10
2023-01-03T14:41:47.144Z,0.90
2023-01-03T14:44:13.423Z,0.95
2023-01-03T14:46:41.619Z,2.05
2023-01-03T14:49:21.271Z,2.92
2023-01-03T14:51:47.791Z,3.60
2023-01-03T14:54:16.099Z,1.80
2023-01-03T14:56:44.797Z,5.18
2023-01-03T14:59:11.299Z,4.68
2023-01-03T15:01:37.976Z,2.33
2023-01-03T15:04:05.105Z,2.15
2023-01-03T15:06:32.110Z,1.10
2023-01-03T15:09:12.364Z,1.35
2023-01-03T15:11:56.104Z,4.15
2023-01-03T15:14:30.359Z,1.70
2023-01-03T15:17:09.526Z,1.15
2023-01-03T15:19:36.195Z,2.60
2023-01-03T15:22:17.193Z,3.72
2023-01-03T15:24:45.015Z,1.10
2023-01-03T15:27:39.538Z,2.45
2023-01-03T15:30:14.904Z,2.75
2023-01-03T15:33:05.870Z,3.05
2023-01-03T15:35:36.565Z,1.70
2023-01-03T15:38:03.502Z,1.15
2023-01-03T15:40:30.642Z,3.42
2023-01-03T15:43:19.657Z,0.82
2023-01-03T15:45:49.972Z,9.32
2023-01-03T15:48:19.234Z,24.45
2023-01-03T15:50:52.736Z,20.60
2023-01-03T15:53:36.631Z,18.85
2023-01-03T15:56:24.335Z,23.58
2023-01-03T15:58:52.011Z,19.02
2023-01-03T16:01:19.107Z,20.67
2023-01-03T16:03:45.489Z,24.00
2023-01-03T16:06:12.003Z,18.92
2023-01-03T16:08:39.197Z,18.33
2023-01-03T16:11:09.485Z,23.08
2023-01-03T16:13:38.901Z,19.67
2023-01-03T16:16:05.726Z,15.20
2023-01-03T16:18:42.058Z,15.43
2023-01-03T16:21:08.567Z,21.08
2023-01-03T16:23:35.176Z,14.60
2023-01-03T16:26:01.921Z,16.65
2023-01-03T16:28:28.658Z,14.57
2023-01-03T16:31:15.999Z,15.02
2023-01-03T16:33:42.792Z,13.68
2023-01-03T16:36:21.594Z,14.82
2023-01-03T16:38:48.291Z,13.82
2023-01-03T16:41:14.768Z,11.98
2023-01-03T16:43:41.233Z,9.75
2023-01-03T16:46:09.516Z,12.57
2023-01-03T16:48:40.424Z,12.70
2023-01-03T16:51:06.880Z,12.02
2023-01-03T16:53:37.168Z,11.75
2023-01-03T16:56:04.239Z,13.05
2023-01-03T16:58:30.700Z,11.10
2023-01-03T17:00:57.469Z,11.73
2023-01-03T17:03:24.035Z,13.65
2023-01-03T17:05:50.626Z,9.90
2023-01-03T17:08:35.339Z,9.60
2023-01-03T17:11:01.950Z,13.07
2023-01-03T17:13:31.371Z,13.15
2023-01-03T17:15:58.096Z,10.20
2023-01-03T17:18:26.360Z,12.05
2023-01-03T17:20:57.921Z,14.27
2023-01-03T17:23:24.793Z,14.55
2023-01-03T17:25:51.513Z,13.37
2023-01-03T17:28:19.828Z,10.85
2023-01-03T17:30:46.367Z,11.85
2023-01-03T17:33:14.773Z,10.85
2023-01-03T17:35:41.439Z,10.05
2023-01-03T17:38:25.805Z,10.20
2023-01-03T17:40:55.102Z,9.02
2023-01-03T17:43:23.114Z,8.25
2023-01-03T17:46:08.628Z,7.40
2023-01-03T17:48:53.586Z,8.05
2023-01-03T17:51:20.045Z,10.45
2023-01-03T17:53:46.600Z,7.85
2023-01-03T17:56:17.391Z,9.90
2023-01-03T17:58:43.943Z,9.10
2023-01-03T18:01:12.334Z,8.38
2023-01-03T18:03:39.163Z,7.63
2023-01-03T18:06:10.076Z,7.35
2023-01-03T18:08:36.591Z,7.57
2023-01-03T18:11:03.049Z,6.55
2023-01-03T18:13:34.302Z,6.50
2023-01-03T18:16:00.838Z,7.75
2023-01-03T18:18:27.742Z,6.07
2023-01-03T18:20:54.435Z,5.47
2023-01-03T18:23:35.232Z,8.93
2023-01-03T18:26:04.272Z,10.60
2023-01-03T18:28:30.761Z,17.77
2023-01-03T18:30:57.361Z,28.95
2023-01-03T18:33:24.420Z,37.22
2023-01-03T18:35:52.629Z,36.72
2023-01-03T18:38:28.909Z,37.90
2023-01-03T18:41:00.729Z,43.58
2023-01-03T18:43:30.700Z,51.58
2023-01-03T18:45:57.436Z,50.25
2023-01-03T18:48:23.984Z,50.80
2023-01-03T18:50:57.886Z,49.05
2023-01-03T18:53:25.900Z,46.20
2023-01-03T18:55:52.371Z,45.42
2023-01-03T18:58:42.695Z,43.20
2023-01-03T19:01:09.318Z,42.08
2023-01-03T19:03:36.944Z,35.35
2023-01-03T19:06:06.380Z,36.38
2023-01-03T19:08:33.102Z,38.55
2023-01-03T19:11:04.369Z,40.28
2023-01-03T19:13:31.129Z,34.15
2023-01-03T19:15:57.662Z,34.75
2023-01-03T19:18:24.194Z,34.00
2023-01-03T19:20:50.667Z,31.90
2023-01-03T19:23:24.990Z,32.42
2023-01-03T19:25:51.514Z,36.33
2023-01-03T19:28:23.016Z,30.08
2023-01-03T19:30:49.647Z,32.83
2023-01-03T19:33:16.322Z,32.08
2023-01-03T19:35:43.301Z,28.60
2023-01-03T19:38:09.851Z,31.73
2023-01-03T19:40:37.571Z,28.80
2023-01-03T19:43:04.072Z,30.13
2023-01-03T19:45:33.010Z,25.75
2023-01-03T19:48:01.022Z,26.80
2023-01-03T19:50:31.909Z,24.48
2023-01-03T19:52:58.407Z,27.58
2023-01-03T19:55:27.541Z,30.33
2023-01-03T19:57:54.029Z,29.70
2023-01-03T20:00:28.136Z,33.83
2023-01-03T20:02:58.651Z,30.52
2023-01-03T20:05:26.741Z,24.17
2023-01-03T20:07:53.281Z,25.92
2023-01-03T20:10:24.257Z,39.40
2023-01-03T20:12:53.361Z,36.10
2023-01-03T20:15:30.970Z,27.30
2023-01-03T20:17:57.551Z,31.58
2023-01-03T20:20:25.257Z,27.30
2023-01-03T20:23:04.666Z,28.77
2023-01-03T20:25:32.624Z,30.27
2023-01-03T20:28:09.853Z,33.20
2023-01-03T20:30:36.367Z,33.10
2023-01-03T20:33:02.907Z,30.10
2023-01-03T20:38:21.192Z,26.13
2023-01-03T20:40:47.651Z,24.13
2023-01-03T20:43:14.595Z,26.52
2023-01-03T20:45:41.051Z,20.52
2023-01-03T20:48:17.883Z,24.70
2023-01-03T20:50:47.569Z,24.98
2023-01-03T20:53:19.678Z,22.63
2023-01-03T20:55:46.680Z,24.25
2023-01-03T20:58:14.938Z,25.52
2023-01-03T21:00:41.426Z,21.92
2023-01-03T21:03:08.886Z,21.27
2023-01-03T21:05:36.507Z,25.35
2023-01-03T21:08:22.249Z,20.23
2023-01-03T21:10:52.740Z,20.58
2023-01-03T21:13:20.616Z,18.67
2023-01-03T21:15:48.015Z,19.35
2023-01-03T21:18:14.568Z,17.02
2023-01-03T21:20:41.202Z,19.95
2023-01-03T21:23:22.141Z,18.17
2023-01-03T21:25:48.714Z,17.05
2023-01-03T21:28:16.143Z,20.05
2023-01-03T21:30:42.656Z,18.10
2023-01-03T21:33:18.566Z,17.63
2023-01-03T21:35:45.479Z,14.35
2023-01-03T21:38:12.440Z,15.43
2023-01-03T21:40:38.900Z,13.48
2023-01-03T21:43:06.058Z,15.98
2023-01-03T21:45:36.277Z,15.93
2023-01-03T21:48:04.862Z,16.95
2023-01-03T21:50:31.776Z,14.27
2023-01-03T21:52:58.299Z,13.75
2023-01-03T21:55:24.880Z,13.95
2023-01-03T21:57:51.455Z,13.10
2023-01-03T22:00:18.189Z,12.90
2023-01-03T22:03:03.489Z,14.52
2023-01-03T22:05:30.268Z,12.20
2023-01-03T22:07:56.746Z,14.45
2023-01-03T22:10:24.073Z,12.38
2023-01-03T22:12:57.044Z,13.85
2023-01-03T22:15:24.495Z,12.77
2023-01-03T22:17:51.195Z,11.48
2023-01-03T22:20:18.290Z,9.68
2023-01-03T22:22:44.860Z,12.10
2023-01-03T22:25:13.339Z,11.00
2023-01-03T22:27:39.806Z,15.40
2023-01-03T22:30:08.291Z,9.63
2023-01-03T22:32:34.810Z,11.63
2023-01-03T22:35:01.274Z,11.90
2023-01-03T22:37:27.884Z,12.27
2023-01-03T22:39:54.350Z,11.52
2023-01-03T22:42:21.125Z,9.88
2023-01-03T22:44:47.623Z,9.90
2023-01-03T22:47:14.102Z,13.65
2023-01-03T22:49:40.560Z,11.75
2023-01-03T22:52:07.065Z,12.35
2023-01-03T22:54:35.216Z,16.95
2023-01-03T22:57:01.850Z,12.68
2023-01-03T22:59:30.185Z,8.68
2023-01-03T23:01:57.382Z,8.38
2023-01-03T23:04:24.382Z,9.63
2023-01-03T23:06:51.024Z,14.60
2023-01-03T23:09:17.495Z,7.05
2023-01-03T23:12:02.559Z,7.35
2023-01-03T23:14:29.080Z,7.60
2023-01-03T23:16:55.976Z,7.65
2023-01-03T23:19:24.218Z,33.00
2023-01-03T23:21:51.428Z,27.65
2023-01-03T23:24:19.862Z,26.55
2023-01-03T23:26:46.335Z,30.13
2023-01-03T23:29:14.211Z,30.65
2023-01-03T23:31:41.174Z,27.25
2023-01-03T23:34:08.402Z,30.67
2023-01-03T23:36:35.029Z,26.98
2023-01-03T23:39:01.483Z,29.80
2023-01-03T23:41:27.996Z,25.88
2023-01-03T23:43:54.610Z,25.73
2023-01-03T23:46:22.368Z,26.00
2023-01-03T23:48:54.333Z,22.67
2023-01-03T23:51:20.793Z,23.65
2023-01-03T23:53:47.279Z,28.13
2023-01-03T23:56:15.439Z,21.42
2023-01-03T23:58:42.031Z,19.38
